createdAt,value
2018-02-27T00:01:14.703Z,40.92
2018-02-27T00:03:42.608Z,40.82
2018-02-27T00:06:10.664Z,41.23
2018-02-27T00:08:38.425Z,41.34
2018-02-27T00:11:06.397Z,41.03
2018-02-27T00:13:34.452Z,41.38
2018-02-27T00:16:02.433Z,41.43
2018-02-27T00:18:30.359Z,41.00
2018-02-27T00:20:58.229Z,41.16
2018-02-27T00:23:26.882Z,41.41
2018-02-27T00:25:55.051Z,41.49
2018-02-27T00:28:22.846Z,41.83
2018-02-27T00:30:50.731Z,41.51
2018-02-27T00:33:18.629Z,41.79
2018-02-27T00:35:46.427Z,42.07
2018-02-27T00:38:14.241Z,42.03
2018-02-27T00:40:42.131Z,41.93
2018-02-27T00:43:09.941Z,42.17
2018-02-27T00:45:37.865Z,42.31
2018-02-27T00:48:05.673Z,42.44
2018-02-27T00:50:33.571Z,42.35
2018-02-27T00:53:01.423Z,42.47
2018-02-27T00:55:29.624Z,42.62
2018-02-27T00:57:57.504Z,42.33
2018-02-27T01:00:25.745Z,42.19
2018-02-27T01:02:53.616Z,42.12
2018-02-27T01:05:21.524Z,42.61
2018-02-27T01:07:49.349Z,42.36
2018-02-27T01:10:17.147Z,42.57
2018-02-27T01:12:44.928Z,41.92
2018-02-27T01:15:12.945Z,42.42
2018-02-27T01:17:40.836Z,42.87
2018-02-27T01:20:08.681Z,42.87
2018-02-27T01:22:36.539Z,42.77
2018-02-27T01:25:04.369Z,42.89
2018-02-27T01:27:32.475Z,43.01
2018-02-27T01:30:00.381Z,43.35
2018-02-27T01:32:28.181Z,43.70
2018-02-27T01:34:56.063Z,43.77
2018-02-27T01:37:23.925Z,43.80
2018-02-27T01:39:51.736Z,43.93
2018-02-27T01:42:19.586Z,44.19
2018-02-27T01:44:47.474Z,44.01
2018-02-27T01:47:15.946Z,44.23
2018-02-27T01:49:43.851Z,44.57
2018-02-27T01:52:11.720Z,44.56
2018-02-27T01:54:39.658Z,44.30
2018-02-27T01:57:07.543Z,44.23
2018-02-27T01:59:35.291Z,44.10
2018-02-27T02:02:03.210Z,44.47
2018-02-27T02:04:31.089Z,44.51
2018-02-27T02:06:58.893Z,44.34
2018-02-27T02:09:26.724Z,44.27
2018-02-27T02:11:54.646Z,44.30
2018-02-27T02:14:22.543Z,44.71
2018-02-27T02:16:50.356Z,44.61
2018-02-27T02:19:18.203Z,44.66
2018-02-27T02:21:46.047Z,44.82
2018-02-27T02:24:13.795Z,44.80
2018-02-27T02:26:41.667Z,45.07
2018-02-27T02:29:09.551Z,44.93
2018-02-27T02:31:37.389Z,45.02
2018-02-27T02:34:04.992Z,44.72
2018-02-27T02:36:32.886Z,44.75
2018-02-27T02:39:00.488Z,44.85
2018-02-27T02:41:28.107Z,44.72
2018-02-27T02:43:56.080Z,44.70
2018-02-27T02:46:23.671Z,44.67
2018-02-27T02:48:51.249Z,44.88
2018-02-27T02:51:18.874Z,45.00
2018-02-27T02:53:46.516Z,45.07
2018-02-27T02:56:14.131Z,44.89
2018-02-27T02:58:41.754Z,44.87
2018-02-27T03:01:09.411Z,44.44
2018-02-27T03:03:37.130Z,44.63
2018-02-27T03:06:04.790Z,44.85
2018-02-27T03:08:32.368Z,44.94
2018-02-27T03:11:00.002Z,44.78
2018-02-27T03:13:27.637Z,44.94
2018-02-27T03:15:55.268Z,44.28
2018-02-27T03:18:22.882Z,44.59
2018-02-27T03:20:50.488Z,44.73
2018-02-27T03:23:18.101Z,44.89
2018-02-27T03:25:45.721Z,45.11
2018-02-27T03:28:13.363Z,45.04
2018-02-27T03:30:41.093Z,45.16
2018-02-27T03:33:08.800Z,45.26
2018-02-27T03:35:36.493Z,44.91
2018-02-27T03:38:04.136Z,45.03
2018-02-27T03:40:31.835Z,44.55
2018-02-27T03:42:59.503Z,44.79
2018-02-27T03:45:27.872Z,44.76
2018-02-27T03:47:55.709Z,44.74
2018-02-27T03:50:23.267Z,44.73
2018-02-27T03:52:50.786Z,44.59
2018-02-27T03:55:18.317Z,44.32
2018-02-27T03:57:45.873Z,44.52
2018-02-27T04:00:13.426Z,44.48
2018-02-27T04:02:41.198Z,44.36
2018-02-27T04:05:08.764Z,44.18
2018-02-27T04:07:36.607Z,44.47
2018-02-27T04:10:04.181Z,44.26
2018-02-27T04:12:31.736Z,44.73
2018-02-27T04:14:59.270Z,45.04
2018-02-27T04:17:26.816Z,45.12
2018-02-27T04:19:54.616Z,45.10
2018-02-27T04:22:22.482Z,44.81
2018-02-27T04:24:50.017Z,44.78
2018-02-27T04:27:17.602Z,44.66
2018-02-27T04:29:45.140Z,44.77
2018-02-27T04:32:12.667Z,44.81
2018-02-27T04:34:40.494Z,44.87
2018-02-27T04:37:08.023Z,44.89
2018-02-27T04:39:35.551Z,44.86
2018-02-27T04:42:03.111Z,45.07
2018-02-27T04:44:30.939Z,45.03
2018-02-27T04:46:58.468Z,45.04
2018-02-27T04:49:26.021Z,45.37
2018-02-27T04:51:53.551Z,45.24
2018-02-27T04:54:21.392Z,45.08
2018-02-27T04:56:49.259Z,45.09
2018-02-27T04:59:16.828Z,45.36
2018-02-27T05:01:44.376Z,45.21
2018-02-27T05:04:11.937Z,44.58
2018-02-27T05:06:39.473Z,44.45
2018-02-27T05:09:07.263Z,44.49
2018-02-27T05:11:35.133Z,44.22
2018-02-27T05:14:02.662Z,44.26
2018-02-27T05:16:30.195Z,44.55
2018-02-27T05:18:57.749Z,45.11
2018-02-27T05:21:25.579Z,45.17
2018-02-27T05:23:53.115Z,44.83
2018-02-27T05:26:20.676Z,45.08
2018-02-27T05:28:48.193Z,45.58
2018-02-27T05:31:16.026Z,45.63
2018-02-27T05:33:43.577Z,45.54
2018-02-27T05:36:11.106Z,45.85
2018-02-27T05:38:38.633Z,46.03
2018-02-27T05:41:06.209Z,46.32
2018-02-27T05:43:33.750Z,46.73
2018-02-27T05:46:01.283Z,46.73
2018-02-27T05:48:28.858Z,46.70
2018-02-27T05:50:56.401Z,45.96
2018-02-27T05:53:23.929Z,47.88
2018-02-27T05:55:51.741Z,48.46
2018-02-27T05:58:19.307Z,48.53
2018-02-27T06:00:47.083Z,48.42
2018-02-27T06:03:14.648Z,48.43
2018-02-27T06:05:42.188Z,48.35
2018-02-27T06:08:09.745Z,48.02
2018-02-27T06:10:37.301Z,48.19
2018-02-27T06:13:04.843Z,47.74
2018-02-27T06:15:32.377Z,48.75
2018-02-27T06:17:59.931Z,49.08
2018-02-27T06:20:27.456Z,49.49
2018-02-27T06:22:55.058Z,49.50
2018-02-27T06:25:22.631Z,50.07
2018-02-27T06:27:50.157Z,50.52
2018-02-27T06:30:17.727Z,49.71
2018-02-27T06:32:45.315Z,49.47
2018-02-27T06:35:12.920Z,49.10
2018-02-27T06:37:40.471Z,48.82
2018-02-27T06:40:08.080Z,48.73
2018-02-27T06:42:35.656Z,48.70
2018-02-27T06:45:03.476Z,47.82
2018-02-27T06:47:31.342Z,47.67
2018-02-27T06:49:58.938Z,47.52
2018-02-27T06:52:26.465Z,47.11
2018-02-27T06:54:54.119Z,47.80
2018-02-27T06:57:21.992Z,47.01
2018-02-27T06:59:49.520Z,47.07
2018-02-27T07:02:17.078Z,47.09
2018-02-27T07:04:44.607Z,47.10
2018-02-27T07:07:12.383Z,46.66
2018-02-27T07:09:39.962Z,46.78
2018-02-27T07:12:07.523Z,47.07
2018-02-27T07:14:35.099Z,47.17
2018-02-27T07:17:02.736Z,47.02
2018-02-27T07:19:30.269Z,46.10
2018-02-27T07:21:57.811Z,46.44
2018-02-27T07:24:25.397Z,46.54
2018-02-27T07:26:53.306Z,46.89
2018-02-27T07:29:21.190Z,47.19
2018-02-27T07:31:48.860Z,47.28
2018-02-27T07:34:16.423Z,46.43
2018-02-27T07:36:44.286Z,46.35
2018-02-27T07:39:11.901Z,46.67
2018-02-27T07:41:39.458Z,46.60
2018-02-27T07:44:06.989Z,46.12
2018-02-27T07:46:34.585Z,46.18
2018-02-27T07:49:02.114Z,46.09
2018-02-27T07:51:29.660Z,46.15
2018-02-27T07:53:57.219Z,45.99
2018-02-27T07:56:24.785Z,46.37
2018-02-27T07:58:52.651Z,46.21
2018-02-27T08:01:20.515Z,45.72
2018-02-27T08:03:48.079Z,45.72
2018-02-27T08:06:15.640Z,46.28
2018-02-27T08:08:43.207Z,45.99
2018-02-27T08:11:10.812Z,45.41
2018-02-27T08:13:38.428Z,45.01
2018-02-27T08:16:06.036Z,44.65
2018-02-27T08:18:33.598Z,44.51
2018-02-27T08:21:01.401Z,45.25
2018-02-27T08:23:28.995Z,46.11
2018-02-27T08:25:56.518Z,45.54
2018-02-27T08:28:24.111Z,45.54
2018-02-27T08:30:51.969Z,44.61
2018-02-27T08:33:19.499Z,44.08
2018-02-27T08:35:47.035Z,42.98
2018-02-27T08:38:14.619Z,42.61
2018-02-27T08:40:42.148Z,42.14
2018-02-27T08:43:09.672Z,41.85
2018-02-27T08:45:37.328Z,41.52
2018-02-27T08:48:04.855Z,41.38
2018-02-27T08:50:32.408Z,41.41
2018-02-27T08:52:59.983Z,41.63
2018-02-27T08:55:27.525Z,42.10
2018-02-27T08:58:01.414Z,41.43
2018-02-27T09:00:28.933Z,41.41
2018-02-27T09:02:56.793Z,40.97
2018-02-27T09:05:25.851Z,40.77
2018-02-27T09:07:53.654Z,41.16
2018-02-27T09:10:21.187Z,40.84
2018-02-27T09:12:51.893Z,39.94
2018-02-27T09:15:19.463Z,40.51
2018-02-27T09:17:47.248Z,41.10
2018-02-27T09:20:15.067Z,40.77
2018-02-27T09:22:42.616Z,39.61
2018-02-27T09:25:10.180Z,38.58
2018-02-27T09:27:37.777Z,38.80
2018-02-27T09:30:05.312Z,38.20
2018-02-27T09:32:32.848Z,37.53
2018-02-27T09:35:00.435Z,36.71
2018-02-27T09:37:27.995Z,36.90
2018-02-27T09:39:55.543Z,36.13
2018-02-27T09:42:23.101Z,35.76
2018-02-27T09:44:50.697Z,35.46
2018-02-27T09:47:18.524Z,36.50
2018-02-27T09:49:46.139Z,37.55
2018-02-27T09:52:13.694Z,37.21
2018-02-27T09:54:41.305Z,36.21
2018-02-27T09:57:08.866Z,35.21
2018-02-27T09:59:36.488Z,33.65
2018-02-27T10:02:04.054Z,32.69
2018-02-27T10:04:31.645Z,32.17
2018-02-27T10:06:59.234Z,31.72
2018-02-27T10:09:26.879Z,31.58
2018-02-27T10:11:54.466Z,31.60
2018-02-27T10:14:22.306Z,31.28
2018-02-27T10:16:49.883Z,31.26
2018-02-27T10:19:17.457Z,31.36
2018-02-27T10:21:45.278Z,31.64
2018-02-27T10:24:12.847Z,31.96
2018-02-27T10:26:40.429Z,33.07
2018-02-27T10:29:07.956Z,32.98
2018-02-27T10:31:35.511Z,33.81
2018-02-27T10:34:03.210Z,34.22
2018-02-27T10:36:30.747Z,33.36
2018-02-27T10:38:58.299Z,32.59
2018-02-27T10:41:25.871Z,31.20
2018-02-27T10:43:53.409Z,30.43
2018-02-27T10:46:21.063Z,30.17
2018-02-27T10:48:48.636Z,31.32
2018-02-27T10:51:16.165Z,30.37
2018-02-27T10:53:43.696Z,29.32
2018-02-27T10:56:11.260Z,28.88
2018-02-27T10:58:38.780Z,27.47
2018-02-27T11:01:11.923Z,26.50
2018-02-27T11:03:39.785Z,26.31
2018-02-27T11:06:07.323Z,27.26
2018-02-27T11:08:34.870Z,29.68
2018-02-27T11:11:02.392Z,29.17
2018-02-27T11:13:29.930Z,28.35
2018-02-27T11:15:57.528Z,26.80
2018-02-27T11:18:25.070Z,27.33
2018-02-27T11:20:52.604Z,26.86
2018-02-27T11:23:20.197Z,25.61
2018-02-27T11:25:47.718Z,24.47
2018-02-27T11:28:15.580Z,22.48
2018-02-27T11:30:43.176Z,21.83
2018-02-27T11:33:10.712Z,21.10
2018-02-27T11:35:39.180Z,21.83
2018-02-27T11:38:06.731Z,21.78
2018-02-27T11:40:34.255Z,21.34
2018-02-27T11:43:01.844Z,21.48
2018-02-27T11:45:29.827Z,20.46
2018-02-27T11:47:57.938Z,21.24
2018-02-27T11:50:25.725Z,20.91
2018-02-27T11:52:53.307Z,21.62
2018-02-27T11:55:20.845Z,21.06
2018-02-27T11:57:48.381Z,19.88
2018-02-27T12:00:16.041Z,18.76
2018-02-27T12:02:43.566Z,18.36
2018-02-27T12:05:11.094Z,18.08
2018-02-27T12:07:38.669Z,17.95
2018-02-27T12:10:06.188Z,17.79
2018-02-27T12:12:33.762Z,18.04
2018-02-27T12:15:01.334Z,18.83
2018-02-27T12:17:29.138Z,19.20
2018-02-27T12:19:56.663Z,18.77
2018-02-27T12:22:24.217Z,18.78
2018-02-27T12:24:51.771Z,19.62
2018-02-27T12:27:19.298Z,19.38
2018-02-27T12:29:46.940Z,18.16
2018-02-27T12:32:14.562Z,17.73
2018-02-27T12:34:42.114Z,17.88
2018-02-27T12:37:09.691Z,18.34
2018-02-27T12:39:37.271Z,19.43
2018-02-27T12:42:04.800Z,19.43
2018-02-27T12:44:32.618Z,19.91
2018-02-27T12:47:00.182Z,20.26
2018-02-27T12:49:27.709Z,21.11
2018-02-27T12:51:55.733Z,21.74
2018-02-27T12:54:23.579Z,21.82
2018-02-27T12:56:51.136Z,22.53
2018-02-27T12:59:18.686Z,24.48
2018-02-27T13:01:46.220Z,26.08
2018-02-27T13:04:13.746Z,27.15
2018-02-27T13:06:41.333Z,28.39
2018-02-27T13:09:08.879Z,28.33
2018-02-27T13:11:36.561Z,28.28
2018-02-27T13:14:04.141Z,28.83
2018-02-27T13:16:31.775Z,28.74
2018-02-27T13:18:59.289Z,29.15
2018-02-27T13:21:26.833Z,29.22
2018-02-27T13:23:54.607Z,29.39
2018-02-27T13:26:22.370Z,29.99
2018-02-27T13:28:49.914Z,30.33
2018-02-27T13:31:17.512Z,31.04
2018-02-27T13:33:46.532Z,31.37
2018-02-27T13:36:14.856Z,31.24
2018-02-27T13:38:42.387Z,30.92
2018-02-27T13:41:10.295Z,31.08
2018-02-27T13:43:38.782Z,31.25
2018-02-27T13:46:06.354Z,31.44
2018-02-27T13:48:34.248Z,32.28
2018-02-27T13:51:02.182Z,32.00
2018-02-27T13:53:29.758Z,32.04
2018-02-27T13:55:57.372Z,32.05
2018-02-27T13:58:25.170Z,32.46
2018-02-27T14:00:55.436Z,32.43
2018-02-27T14:03:23.262Z,33.04
2018-02-27T14:05:50.846Z,33.45
2018-02-27T14:08:18.375Z,33.50
2018-02-27T14:10:46.146Z,33.70
2018-02-27T14:13:13.790Z,34.01
2018-02-27T14:15:41.328Z,34.13
2018-02-27T14:18:08.877Z,33.33
2018-02-27T14:20:36.469Z,33.67
2018-02-27T14:23:04.010Z,33.62
2018-02-27T14:25:31.530Z,33.85
2018-02-27T14:27:59.150Z,33.98
2018-02-27T14:30:26.675Z,34.29
2018-02-27T14:32:55.599Z,35.38
2018-02-27T14:35:23.501Z,36.34
2018-02-27T14:37:51.066Z,36.37
2018-02-27T14:40:18.596Z,36.19
2018-02-27T14:42:46.229Z,36.75
2018-02-27T14:45:14.043Z,37.45
2018-02-27T14:47:41.586Z,38.09
2018-02-27T14:50:09.475Z,38.08
2018-02-27T14:52:37.108Z,38.17
2018-02-27T14:55:04.669Z,38.74
2018-02-27T14:57:32.238Z,40.12
2018-02-27T14:59:59.855Z,40.40
2018-02-27T15:02:27.435Z,40.67
2018-02-27T15:04:55.265Z,40.52
2018-02-27T15:07:22.923Z,40.74
2018-02-27T15:09:50.458Z,40.82
2018-02-27T15:12:18.025Z,41.50
2018-02-27T15:14:45.571Z,41.40
2018-02-27T15:17:13.100Z,41.82
2018-02-27T15:19:40.657Z,41.61
2018-02-27T15:22:08.177Z,41.40
2018-02-27T15:24:36.045Z,41.43
2018-02-27T15:27:03.613Z,41.55
2018-02-27T15:29:31.137Z,41.34
2018-02-27T15:31:58.675Z,41.52
2018-02-27T15:34:26.490Z,41.60
2018-02-27T15:36:54.013Z,41.61
2018-02-27T15:39:21.567Z,41.57
2018-02-27T15:41:49.211Z,41.94
2018-02-27T15:44:17.147Z,42.31
2018-02-27T15:46:44.692Z,42.47
2018-02-27T15:49:12.576Z,42.41
2018-02-27T15:51:40.130Z,42.57
2018-02-27T15:54:07.676Z,42.20
2018-02-27T15:56:36.112Z,42.83
2018-02-27T15:59:03.877Z,43.72
2018-02-27T16:01:31.711Z,44.31
2018-02-27T16:03:59.570Z,45.27
2018-02-27T16:06:27.362Z,46.78
2018-02-27T16:08:54.924Z,47.05
2018-02-27T16:11:22.508Z,47.35
2018-02-27T16:13:50.068Z,47.21
2018-02-27T16:16:17.599Z,46.66
2018-02-27T16:18:45.159Z,46.33
2018-02-27T16:21:12.703Z,46.54
2018-02-27T16:23:40.874Z,46.84
2018-02-27T16:26:09.251Z,47.40
2018-02-27T16:28:37.171Z,47.48
2018-02-27T16:31:05.001Z,47.57
2018-02-27T16:33:36.596Z,47.77
2018-02-27T16:36:04.186Z,48.93
2018-02-27T16:38:31.755Z,49.48
2018-02-27T16:40:59.322Z,49.61
2018-02-27T16:43:27.098Z,49.79
2018-02-27T16:45:54.657Z,50.16
2018-02-27T16:48:22.251Z,50.67
2018-02-27T16:50:49.786Z,50.75
2018-02-27T16:53:17.452Z,51.01
2018-02-27T16:55:45.028Z,51.25
2018-02-27T16:58:12.622Z,51.37
2018-02-27T17:00:40.170Z,51.71
2018-02-27T17:03:07.999Z,51.04
2018-02-27T17:05:35.926Z,50.67
2018-02-27T17:08:03.600Z,50.88
2018-02-27T17:10:31.178Z,51.68
2018-02-27T17:12:58.731Z,51.53
2018-02-27T17:15:26.556Z,51.57
2018-02-27T17:17:54.117Z,52.78
2018-02-27T17:20:21.787Z,54.38
2018-02-27T17:22:49.343Z,55.16
2018-02-27T17:25:16.965Z,56.74
2018-02-27T17:27:44.534Z,57.47
2018-02-27T17:30:12.294Z,57.93
2018-02-27T17:32:39.919Z,58.42
2018-02-27T17:35:08.078Z,58.56
2018-02-27T17:37:35.682Z,58.63
2018-02-27T17:40:03.274Z,58.66
2018-02-27T17:42:30.858Z,58.09
2018-02-27T17:44:58.423Z,57.29
2018-02-27T17:47:26.023Z,57.04
2018-02-27T17:49:53.602Z,57.10
2018-02-27T17:52:21.167Z,56.14
2018-02-27T17:55:52.491Z,55.52
2018-02-27T17:58:21.321Z,55.29
2018-02-27T18:00:49.172Z,54.98
2018-02-27T18:03:18.809Z,55.18
2018-02-27T18:05:47.502Z,54.77
2018-02-27T18:08:15.369Z,54.86
2018-02-27T18:10:43.205Z,54.47
2018-02-27T18:13:10.781Z,54.46
2018-02-27T18:15:39.050Z,54.77
2018-02-27T18:18:06.919Z,54.98
2018-02-27T18:20:35.307Z,54.96
2018-02-27T18:23:02.951Z,54.64
2018-02-27T18:25:30.528Z,54.32
2018-02-27T18:27:58.119Z,53.90
2018-02-27T18:30:25.985Z,54.17
2018-02-27T18:32:53.701Z,54.17
2018-02-27T18:35:21.443Z,53.56
2018-02-27T18:37:49.100Z,54.09
2018-02-27T18:40:16.723Z,54.25
2018-02-27T18:42:44.277Z,54.31
2018-02-27T18:45:12.707Z,53.99
2018-02-27T18:47:41.127Z,53.81
2018-02-27T18:50:08.982Z,53.56
2018-02-27T18:52:36.683Z,53.96
2018-02-27T18:55:04.318Z,54.15
2018-02-27T18:57:31.902Z,54.51
2018-02-27T18:59:59.489Z,54.82
2018-02-27T19:02:27.094Z,54.92
2018-02-27T19:04:54.662Z,54.97
2018-02-27T19:07:22.324Z,54.99
2018-02-27T19:09:49.900Z,54.87
2018-02-27T19:12:17.498Z,54.92
2018-02-27T19:14:45.101Z,55.02
2018-02-27T19:17:13.068Z,55.19
2018-02-27T19:19:40.791Z,55.52
2018-02-27T19:22:08.339Z,55.33
2018-02-27T19:24:36.029Z,55.21
2018-02-27T19:27:03.647Z,55.51
2018-02-27T19:29:31.420Z,55.62
2018-02-27T19:31:59.558Z,55.96
2018-02-27T19:34:28.046Z,56.20
2018-02-27T19:36:55.665Z,56.36
2018-02-27T19:39:23.247Z,56.37
2018-02-27T19:41:50.783Z,56.29
2018-02-27T19:44:18.448Z,56.29
2018-02-27T19:46:46.554Z,56.77
2018-02-27T19:49:14.154Z,56.97
2018-02-27T19:51:42.208Z,57.14
2018-02-27T19:54:09.775Z,57.54
2018-02-27T19:56:37.316Z,58.01
2018-02-27T19:59:04.935Z,57.61
2018-02-27T20:01:38.692Z,57.52
2018-02-27T20:04:06.248Z,58.12
2018-02-27T20:06:33.803Z,58.77
2018-02-27T20:09:01.391Z,59.08
2018-02-27T20:11:28.939Z,59.35
2018-02-27T20:13:56.639Z,59.45
2018-02-27T20:16:25.061Z,59.79
2018-02-27T20:18:52.627Z,60.00
2018-02-27T20:21:20.162Z,59.70
2018-02-27T20:23:53.292Z,59.95
2018-02-27T20:26:20.851Z,59.97
2018-02-27T20:28:53.861Z,60.10
2018-02-27T20:31:21.478Z,60.52
2018-02-27T20:33:49.050Z,60.89
2018-02-27T20:36:16.620Z,60.40
2018-02-27T20:38:49.868Z,59.93
2018-02-27T20:41:17.768Z,59.85
2018-02-27T20:43:45.678Z,59.56
2018-02-27T20:46:13.480Z,58.46
2018-02-27T20:48:41.193Z,57.67
2018-02-27T20:51:08.787Z,57.47
2018-02-27T20:53:36.397Z,57.89
2018-02-27T20:56:04.078Z,56.74
2018-02-27T20:58:31.628Z,54.97
2018-02-27T21:00:59.392Z,54.93
2018-02-27T21:03:26.968Z,54.04
2018-02-27T21:05:55.046Z,54.02
2018-02-27T21:08:23.089Z,53.29
2018-02-27T21:10:50.712Z,53.72
2018-02-27T21:13:18.258Z,53.39
2018-02-27T21:15:45.826Z,52.68
2018-02-27T21:18:13.433Z,52.11
2018-02-27T21:20:40.943Z,51.97
2018-02-27T21:23:08.491Z,52.02
2018-02-27T21:25:36.051Z,51.91
2018-02-27T21:28:04.097Z,50.96
2018-02-27T21:30:31.624Z,50.86
2018-02-27T21:32:59.199Z,50.55
2018-02-27T21:35:26.762Z,50.29
2018-02-27T21:37:54.295Z,50.36
2018-02-27T21:40:21.908Z,50.17
2018-02-27T21:42:49.448Z,50.20
2018-02-27T21:45:17.030Z,49.96
2018-02-27T21:47:44.607Z,49.71
2018-02-27T21:50:12.768Z,49.44
2018-02-27T21:52:40.358Z,49.33
2018-02-27T21:55:09.056Z,49.25
2018-02-27T21:57:37.527Z,48.36
2018-02-27T22:00:05.093Z,48.20
2018-02-27T22:02:33.168Z,47.71
2018-02-27T22:05:00.762Z,47.67
2018-02-27T22:07:28.290Z,47.86
2018-02-27T22:09:55.894Z,47.76
2018-02-27T22:12:23.430Z,48.05
2018-02-27T22:14:50.984Z,47.94
2018-02-27T22:17:18.889Z,47.68
2018-02-27T22:19:47.281Z,47.41
2018-02-27T22:22:15.154Z,47.60
2018-02-27T22:24:43.015Z,46.55
2018-02-27T22:27:10.610Z,46.48
2018-02-27T22:29:38.162Z,45.73
2018-02-27T22:32:06.007Z,45.54
2018-02-27T22:34:33.760Z,45.74
2018-02-27T22:37:01.316Z,45.57
2018-02-27T22:39:28.871Z,45.66
2018-02-27T22:41:56.418Z,46.23
2018-02-27T22:44:24.318Z,46.57
2018-02-27T22:46:52.193Z,46.73
2018-02-27T22:49:20.051Z,47.32
2018-02-27T22:51:47.627Z,47.57
2018-02-27T22:54:15.239Z,47.85
2018-02-27T22:56:42.783Z,47.97
2018-02-27T22:59:10.570Z,48.22
2018-02-27T23:01:38.150Z,48.80
2018-02-27T23:04:05.711Z,48.92
2018-02-27T23:06:33.252Z,49.05
2018-02-27T23:09:00.822Z,49.13
2018-02-27T23:11:28.442Z,49.37
2018-02-27T23:13:55.995Z,49.41
2018-02-27T23:16:23.558Z,49.67
2018-02-27T23:18:51.119Z,49.92
2018-02-27T23:21:18.669Z,50.50
2018-02-27T23:26:43.083Z,51.14
2018-02-27T23:29:11.673Z,51.07
2018-02-27T23:31:49.243Z,51.15
2018-02-27T23:34:31.800Z,51.16
2018-02-27T23:36:59.616Z,51.50
2018-02-27T23:39:27.132Z,51.17
2018-02-27T23:41:54.694Z,51.32
2018-02-27T23:44:22.247Z,51.61
2018-02-27T23:46:49.807Z,51.60
2018-02-27T23:49:17.359Z,52.24
2018-02-27T23:51:45.051Z,52.85
2018-02-27T23:54:12.591Z,52.85
2018-02-27T23:56:40.179Z,52.87
2018-02-27T23:59:07.846Z,52.83
